Time;durP1;ratioP1;P1;durP2;ratioP2;P2;SDS_P1;SDS_P2;PMS_P1;PMS_P2;Temp;Humidity;BMP_temperature;BMP_pressure;BME280_temperature;BME280_humidity;BME280_pressure;Samples;Min_cycle;Max_cycle;Signal;HPM_P1;HPM_P2
2022/05/20 00:01:09;;;;;;;16.08;10.02;;;;;;;15.42;100.00;99888.38;5001956;28;20031;-55
2022/05/20 00:03:36;;;;;;;16.63;9.95;;;;;;;15.42;100.00;99904.59;5007345;28;20158;-56
2022/05/20 00:06:01;;;;;;;17.00;11.65;;;;;;;15.35;100.00;99888.63;5004169;28;20125;-55
2022/05/20 00:08:27;;;;;;;19.70;11.30;;;;;;;15.34;100.00;99878.88;5006344;28;20094;-56
2022/05/20 00:10:53;;;;;;;20.27;11.73;;;;;;;15.40;100.00;99872.44;5004988;28;20065;-55
2022/05/20 00:13:23;;;;;;;17.60;10.52;;;;;;;15.45;100.00;99877.03;5004478;28;20575;-54
2022/05/20 00:15:49;;;;;;;19.73;11.10;;;;;;;15.46;100.00;99881.41;5006703;28;20029;-56
2022/05/20 00:18:14;;;;;;;16.27;10.60;;;;;;;15.46;100.00;99881.41;5006857;28;20933;-56
2022/05/20 00:20:40;;;;;;;20.00;11.00;;;;;;;15.35;100.00;99883.22;4989322;28;20274;-57
2022/05/20 00:23:05;;;;;;;21.42;11.52;;;;;;;15.34;100.00;99875.34;5006022;28;20499;-57
2022/05/20 00:25:46;;;;;;;15.02;10.45;;;;;;;15.31;100.00;99869.38;5004487;28;20033;-56
2022/05/20 00:28:22;;;;;;;18.08;11.32;;;;;;;15.38;100.00;99874.59;5000831;28;20025;-56
2022/05/20 00:31:00;;;;;;;21.88;10.80;;;;;;;15.31;100.00;99876.69;4973200;28;20022;-56
2022/05/20 00:33:28;;;;;;;15.65;10.65;;;;;;;15.25;100.00;99867.72;4979460;28;20552;-57
2022/05/20 00:35:54;;;;;;;14.25;10.30;;;;;;;15.40;100.00;99864.34;5005735;28;20044;-55
2022/05/20 00:38:20;;;;;;;16.70;10.23;;;;;;;15.40;100.00;99874.31;5004916;28;20033;-57
2022/05/20 00:40:46;;;;;;;21.10;11.73;;;;;;;15.42;100.00;99867.56;5005843;28;20026;-56
2022/05/20 00:43:12;;;;;;;18.85;9.98;;;;;;;15.56;100.00;99867.16;5005488;28;20026;-56
2022/05/20 00:45:38;;;;;;;16.88;10.75;;;;;;;15.49;100.00;99868.16;5005931;28;20487;-57
2022/05/20 00:48:04;;;;;;;17.80;9.57;;;;;;;15.45;100.00;99868.94;5006698;28;20054;-55
2022/05/20 00:50:30;;;;;;;15.52;10.40;;;;;;;15.36;100.00;99865.91;5002720;28;20275;-54
2022/05/20 00:52:55;;;;;;;23.13;11.55;;;;;;;15.17;100.00;99860.09;4987195;28;20231;-58
2022/05/20 00:55:22;;;;;;;22.90;10.57;;;;;;;15.15;100.00;99856.84;5006170;28;20537;-56
2022/05/20 00:58:18;;;;;;;18.83;11.27;;;;;;;15.23;100.00;99848.28;5001892;28;20042;-54
2022/05/20 01:00:45;;;;;;;19.02;12.77;;;;;;;15.36;100.00;99857.00;4991776;28;20382;-55
2022/05/20 01:03:12;;;;;;;15.35;11.25;;;;;;;15.27;100.00;99849.38;4998379;28;20417;-55
2022/05/20 01:05:39;;;;;;;17.00;11.70;;;;;;;15.11;100.00;99847.63;4995631;28;20026;-56
2022/05/20 01:08:05;;;;;;;15.68;11.57;;;;;;;14.95;100.00;99849.38;5005676;28;20030;-57
2022/05/20 01:10:31;;;;;;;19.08;12.40;;;;;;;14.78;100.00;99864.88;5005190;28;20037;-56
2022/05/20 01:12:57;;;;;;;28.10;13.45;;;;;;;14.84;100.00;99867.34;4986767;28;20034;-56
2022/05/20 01:15:22;;;;;;;17.08;12.57;;;;;;;14.73;100.00;99862.94;5005570;28;20025;-55
2022/05/20 01:17:49;;;;;;;21.10;12.90;;;;;;;14.87;100.00;99866.84;4995297;28;20069;-56
2022/05/20 01:20:17;;;;;;;23.70;14.30;;;;;;;14.91;100.00;99852.84;5005906;28;20041;-59
2022/05/20 01:22:59;;;;;;;20.67;13.85;;;;;;;14.94;100.00;99863.13;4985491;28;20030;-56
2022/05/20 01:25:25;;;;;;;26.60;15.98;;;;;;;14.72;100.00;99858.59;4989515;28;20480;-56
2022/05/20 01:27:50;;;;;;;32.00;20.55;;;;;;;14.93;100.00;99848.03;4978028;28;20038;-55
2022/05/20 01:31:14;;;;;;;34.05;22.10;;;;;;;14.91;100.00;99834.75;4986895;28;20373;-56
2022/05/20 01:33:44;;;;;;;40.25;24.15;;;;;;;14.95;100.00;99846.69;5003532;28;20049;-56
2022/05/20 01:36:12;;;;;;;45.97;28.17;;;;;;;15.04;100.00;99849.72;5005056;28;20373;-56
2022/05/20 01:38:38;;;;;;;54.47;30.38;;;;;;;15.04;100.00;99844.31;5005368;28;20026;-56
2022/05/20 01:41:09;;;;;;;52.65;30.92;;;;;;;15.05;100.00;99859.44;5005624;28;20044;-56
2022/05/20 01:44:11;;;;;;;53.10;31.92;;;;;;;15.07;100.00;99855.41;5005827;28;20068;-56
2022/05/20 01:46:42;;;;;;;73.20;32.63;;;;;;;15.02;100.00;99858.06;4906464;29;20440;-56
2022/05/20 01:49:19;;;;;;;55.95;32.05;;;;;;;15.03;100.00;99858.91;4985059;28;20039;-59
2022/05/20 01:52:04;;;;;;;63.20;32.17;;;;;;;14.98;100.00;99866.97;5004569;28;20037;-56
2022/05/20 01:55:07;;;;;;;57.63;31.88;;;;;;;14.97;100.00;99863.41;5001277;28;20037;-56
2022/05/20 01:57:45;;;;;;;52.97;31.10;;;;;;;15.01;100.00;99864.53;5005907;28;20060;-55
2022/05/20 02:00:13;;;;;;;51.63;29.40;;;;;;;15.10;100.00;99881.06;5002213;28;20484;-56
2022/05/20 02:03:11;;;;;;;51.28;31.35;;;;;;;15.12;100.00;99894.34;4987551;28;20029;-55
2022/05/20 02:06:01;;;;;;;50.53;31.42;;;;;;;15.14;100.00;99882.22;4998954;28;20109;-56
2022/05/20 02:08:31;;;;;;;55.25;32.10;;;;;;;15.12;100.00;99873.53;4987169;28;20518;-55
2022/05/20 02:11:16;;;;;;;52.38;31.40;;;;;;;15.19;100.00;99863.34;4988237;28;20042;-56
2022/05/20 02:13:48;;;;;;;53.83;31.10;;;;;;;15.25;100.00;99865.03;4956883;28;20524;-55
2022/05/20 02:16:18;;;;;;;53.83;32.28;;;;;;;15.30;100.00;99877.75;4971281;28;20429;-55
2022/05/20 02:19:00;;;;;;;58.35;31.15;;;;;;;15.32;100.00;99862.09;4966133;28;20038;-55
2022/05/20 02:21:26;;;;;;;50.08;30.27;;;;;;;15.30;100.00;99848.03;4982732;28;20064;-56
2022/05/20 02:23:54;;;;;;;51.55;30.20;;;;;;;15.33;100.00;99842.13;4969086;28;20164;-57
2022/05/20 02:26:22;;;;;;;50.03;31.15;;;;;;;15.34;100.00;99824.03;4989539;28;20021;-53
2022/05/20 02:28:56;;;;;;;55.08;31.65;;;;;;;15.31;100.00;99820.78;4974756;28;20025;-54
2022/05/20 02:31:50;;;;;;;60.53;32.05;;;;;;;15.32;100.00;99841.31;4989094;28;20408;-55
2022/05/20 02:34:16;;;;;;;51.35;30.00;;;;;;;15.43;100.00;99852.22;4988088;28;20153;-55
2022/05/20 02:36:41;;;;;;;50.30;30.90;;;;;;;15.47;100.00;99856.00;5009005;28;20180;-58
2022/05/20 02:39:14;;;;;;;49.75;30.90;;;;;;;15.44;100.00;99853.81;5008541;28;20105;-54
2022/05/20 02:41:45;;;;;;;50.88;32.25;;;;;;;15.40;100.00;99848.13;5006871;28;20487;-56
2022/05/20 02:44:10;;;;;;;52.85;32.88;;;;;;;15.37;100.00;99843.22;5007012;28;20037;-54
2022/05/20 02:46:37;;;;;;;62.85;34.38;;;;;;;15.32;100.00;99852.13;5007378;28;20491;-54
2022/05/20 02:49:02;;;;;;;58.88;35.60;;;;;;;15.30;100.00;99848.03;5006110;28;20108;-56
2022/05/20 02:51:28;;;;;;;56.95;34.60;;;;;;;15.32;100.00;99852.13;5007831;28;20476;-57
2022/05/20 02:53:53;;;;;;;59.47;32.58;;;;;;;15.32;100.00;99862.94;5008386;28;20496;-55
2022/05/20 02:56:19;;;;;;;56.15;32.20;;;;;;;15.38;100.00;99861.09;5008244;28;20077;-56
2022/05/20 03:04:13;;;;;;;41.42;26.58;;;;;;;15.46;100.00;99886.78;4980904;28;20085;-55
2022/05/20 03:06:51;;;;;;;44.83;28.67;;;;;;;15.46;100.00;99884.09;5007489;28;20022;-55
2022/05/20 03:09:19;;;;;;;50.08;30.02;;;;;;;15.31;100.00;99864.00;5004482;28;20390;-55
2022/05/20 03:11:44;;;;;;;53.03;31.80;;;;;;;15.27;100.00;99843.16;5007973;28;20042;-54
2022/05/20 03:14:11;;;;;;;58.50;31.77;;;;;;;15.31;100.00;99850.47;5007846;28;21112;-52
2022/05/20 03:16:37;;;;;;;53.88;34.15;;;;;;;15.35;100.00;99856.19;5007082;28;20037;-55
2022/05/20 03:19:04;;;;;;;63.40;35.25;;;;;;;15.30;100.00;99843.47;5006775;28;20022;-54
2022/05/20 03:21:30;;;;;;;70.53;38.53;;;;;;;15.35;100.00;99837.28;5007691;28;20506;-54
2022/05/20 03:23:56;;;;;;;69.82;39.08;;;;;;;15.34;100.00;99815.94;5006171;28;20030;-56
2022/05/20 03:26:21;;;;;;;84.78;42.88;;;;;;;15.31;100.00;99817.28;5006192;28;20014;-54
2022/05/20 03:28:47;;;;;;;85.72;41.42;;;;;;;15.45;100.00;99823.03;4973119;28;20149;-54
2022/05/20 03:31:12;;;;;;;73.85;37.85;;;;;;;15.54;100.00;99814.16;5005357;28;20395;-54
2022/05/20 03:33:39;;;;;;;77.03;39.20;;;;;;;15.48;100.00;99833.34;5006877;28;20473;-55
2022/05/20 03:36:05;;;;;;;73.32;38.25;;;;;;;15.53;100.00;99811.75;5005766;28;20105;-55
2022/05/20 03:38:30;;;;;;;55.72;32.65;;;;;;;15.54;100.00;99792.56;4988859;28;20318;-55
2022/05/20 03:40:56;;;;;;;59.50;35.95;;;;;;;15.44;100.00;99805.19;5004066;28;20105;-55
2022/05/20 03:43:22;;;;;;;72.47;37.78;;;;;;;15.43;100.00;99790.09;4989494;28;20491;-54
2022/05/20 03:45:48;;;;;;;69.22;35.10;;;;;;;15.51;100.00;99794.97;5008095;28;20080;-54
2022/05/20 03:48:14;;;;;;;64.22;34.67;;;;;;;15.53;100.00;99792.84;5007300;28;20417;-54
2022/05/20 03:50:39;;;;;;;60.30;33.20;;;;;;;15.56;100.00;99794.22;5006190;28;20041;-52
2022/05/20 03:53:05;;;;;;;74.75;39.25;;;;;;;15.34;100.00;99797.84;5005804;28;20033;-54
2022/05/20 03:55:30;;;;;;;94.75;46.03;;;;;;;15.34;100.00;99791.63;5006571;28;20061;-53
2022/05/20 03:57:56;;;;;;;95.45;45.88;;;;;;;15.32;100.00;99797.28;4984431;28;20560;-54
2022/05/20 04:00:21;;;;;;;100.35;46.28;;;;;;;15.44;100.00;99797.91;4989051;28;20388;-55
2022/05/20 04:02:47;;;;;;;88.43;43.25;;;;;;;15.51;100.00;99809.31;5006631;28;20057;-54
2022/05/20 04:05:13;;;;;;;75.20;40.80;;;;;;;15.48;100.00;99812.53;5006632;28;20053;-55
2022/05/20 04:07:41;;;;;;;78.18;40.38;;;;;;;15.47;100.00;99820.88;5006067;28;20026;-55
2022/05/20 04:10:08;;;;;;;73.03;39.67;;;;;;;15.57;100.00;99820.94;5002882;28;20030;-54
2022/05/20 04:12:35;;;;;;;69.45;37.92;;;;;;;15.73;100.00;99822.69;5005103;28;20508;-56
2022/05/20 04:15:01;;;;;;;53.97;28.63;;;;;;;16.83;100.00;99825.53;4989093;28;20068;-54
2022/05/20 04:17:27;;;;;;;59.45;33.72;;;;;;;16.63;100.00;99826.28;4977555;28;20038;-55
2022/05/20 04:19:53;;;;;;;61.70;34.10;;;;;;;16.35;100.00;99826.50;4988749;28;20044;-56
2022/05/20 04:22:20;;;;;;;57.85;33.17;;;;;;;16.20;100.00;99848.06;5006680;28;20104;-55
2022/05/20 04:24:46;;;;;;;61.00;34.45;;;;;;;16.43;100.00;99837.88;4989047;28;20029;-55
2022/05/20 04:27:11;;;;;;;57.85;31.83;;;;;;;16.31;100.00;99816.47;5005557;28;20034;-54
2022/05/20 04:29:37;;;;;;;60.63;32.88;;;;;;;16.28;100.00;99827.81;4994604;28;20030;-54
2022/05/20 04:32:03;;;;;;;71.82;35.63;;;;;;;16.41;100.00;99835.44;5003168;28;20303;-54
2022/05/20 04:34:29;;;;;;;57.38;32.08;;;;;;;16.39;100.00;99832.16;5006254;28;20040;-55
2022/05/20 04:36:55;;;;;;;56.53;31.90;;;;;;;16.43;100.00;99841.38;5004111;28;20018;-54
2022/05/20 04:39:23;;;;;;;68.28;34.63;;;;;;;16.28;100.00;99842.16;4999437;28;20301;-52
2022/05/20 04:47:25;;;;;;;78.72;38.97;;;;;;;15.38;100.00;99763.03;5002876;28;20056;-54
2022/05/20 04:49:50;;;;;;;90.97;41.10;;;;;;;15.38;100.00;99749.53;5005049;28;20069;-56
2022/05/20 04:52:16;;;;;;;102.57;44.30;;;;;;;15.41;100.00;99754.41;5005892;28;20040;-55
2022/05/20 04:54:51;;;;;;;88.82;42.40;;;;;;;15.62;100.00;99783.16;4987216;28;20099;-57
2022/05/20 04:57:31;;;;;;;96.43;44.67;;;;;;;15.63;100.00;99779.38;5005551;28;20092;-57
2022/05/20 05:00:05;;;;;;;97.82;45.45;;;;;;;15.59;100.00;99783.69;5005765;28;20083;-58
2022/05/20 05:02:32;;;;;;;92.85;45.28;;;;;;;15.72;100.00;99783.25;5002161;28;20204;-55
2022/05/20 05:04:57;;;;;;;86.72;41.97;;;;;;;16.00;100.00;99781.22;5005347;28;20028;-57
2022/05/20 05:07:23;;;;;;;95.43;45.13;;;;;;;16.01;100.00;99780.13;5004504;28;20034;-56
2022/05/20 05:09:53;;;;;;;83.40;39.45;;;;;;;16.13;100.00;99783.41;5004580;28;20053;-56
2022/05/20 05:12:18;;;;;;;91.57;41.35;;;;;;;16.22;100.00;99791.81;5004954;28;20040;-56
2022/05/20 05:14:48;;;;;;;79.18;37.25;;;;;;;16.31;100.00;99765.06;5004431;28;20034;-57
2022/05/20 05:17:17;;;;;;;80.97;39.53;;;;;;;16.27;100.00;99772.09;5004113;28;20042;-57
2022/05/20 05:19:44;;;;;;;77.85;39.50;;;;;;;16.10;100.00;99759.63;4982581;28;20034;-57
2022/05/20 05:22:10;;;;;;;69.22;36.35;;;;;;;16.35;100.00;99760.75;4987119;28;20026;-56
2022/05/20 05:24:36;;;;;;;76.88;39.25;;;;;;;16.28;100.00;99773.72;5003279;28;20492;-55
2022/05/20 05:27:02;;;;;;;68.10;35.05;;;;;;;16.24;100.00;99772.63;4997441;28;20046;-55
2022/05/20 05:29:27;;;;;;;72.95;37.92;;;;;;;16.07;100.00;99776.34;4995615;28;20137;-55
2022/05/20 05:31:53;;;;;;;88.93;37.30;;;;;;;16.08;100.00;99769.06;5005276;28;20032;-55
2022/05/20 05:34:19;;;;;;;85.40;39.60;;;;;;;16.31;100.00;99771.28;5005256;28;20022;-54
2022/05/20 05:36:44;;;;;;;78.18;38.55;;;;;;;16.43;100.00;99778.34;5005346;28;20065;-55
2022/05/20 05:39:10;;;;;;;75.75;35.70;;;;;;;16.47;100.00;99772.13;5003852;28;20022;-56
2022/05/20 05:41:35;;;;;;;77.13;38.55;;;;;;;16.33;100.00;99779.16;4985116;28;20133;-56
2022/05/20 05:44:03;;;;;;;71.93;36.35;;;;;;;16.41;100.00;99773.19;4994540;28;20072;-57
2022/05/20 05:46:30;;;;;;;67.03;32.83;;;;;;;16.56;100.00;99778.63;4998582;28;20030;-57
2022/05/20 05:48:55;;;;;;;68.25;36.00;;;;;;;16.59;100.00;99780.00;4997775;28;20117;-57
2022/05/20 05:51:21;;;;;;;79.82;36.75;;;;;;;16.63;100.00;99785.69;5002259;28;20093;-55
2022/05/20 05:53:56;;;;;;;66.90;36.95;;;;;;;16.72;100.00;99786.78;4983717;28;20030;-56
2022/05/20 05:56:22;;;;;;;77.45;35.58;;;;;;;16.68;100.00;99783.00;4982364;28;20121;-57
2022/05/20 05:58:47;;;;;;;58.78;31.20;;;;;;;17.08;100.00;99786.84;5007751;28;20113;-57
2022/05/20 06:01:13;;;;;;;60.60;32.25;;;;;;;17.17;100.00;99793.31;5006280;28;20472;-57
2022/05/20 06:03:39;;;;;;;70.00;34.55;;;;;;;16.98;100.00;99785.75;4989888;28;20104;-56
2022/05/20 06:06:04;;;;;;;69.72;34.10;;;;;;;16.73;100.00;99785.72;5008651;28;20022;-56
2022/05/20 06:08:30;;;;;;;65.47;32.88;;;;;;;16.90;100.00;99771.91;5004274;28;20026;-55
2022/05/20 06:10:56;;;;;;;56.15;29.00;;;;;;;17.19;100.00;99764.06;4984828;28;20524;-56
2022/05/20 06:13:26;;;;;;;51.83;29.15;;;;;;;16.96;100.00;99758.13;4990914;28;20332;-56
2022/05/20 06:15:58;;;;;;;50.70;26.85;;;;;;;16.92;100.00;99748.09;5006430;28;20025;-57
2022/05/20 06:18:25;;;;;;;53.78;28.05;;;;;;;16.84;100.00;99741.34;5007452;28;20028;-56
2022/05/20 06:20:51;;;;;;;43.13;25.52;;;;;;;17.70;99.04;99736.84;5007527;28;20042;-55
2022/05/20 06:23:16;;;;;;;49.92;26.85;;;;;;;17.77;97.07;99742.78;4990435;28;20033;-57
2022/05/20 06:25:42;;;;;;;47.10;26.55;;;;;;;18.38;94.83;99746.28;5008487;28;20125;-56
2022/05/20 06:28:12;;;;;;;45.80;27.33;;;;;;;18.60;91.31;99740.44;5007792;28;20038;-54
2022/05/20 06:30:38;;;;;;;40.45;23.55;;;;;;;19.15;87.45;99747.31;5007189;28;20112;-56
2022/05/20 06:33:04;;;;;;;34.78;22.83;;;;;;;18.77;88.64;99754.44;5007698;28;20037;-55
2022/05/20 06:40:59;;;;;;;36.72;20.92;;;;;;;19.42;89.67;99765.00;5007004;28;20512;-55
2022/05/20 06:43:26;;;;;;;32.72;21.50;;;;;;;19.29;90.76;99771.09;5007729;28;20496;-59
2022/05/20 06:45:53;;;;;;;34.45;21.02;;;;;;;19.81;88.19;99773.00;4990219;28;20411;-56
2022/05/20 06:48:18;;;;;;;33.75;20.77;;;;;;;19.85;86.26;99767.00;4987156;28;20395;-57
2022/05/20 06:50:44;;;;;;;26.77;18.45;;;;;;;19.21;92.21;99769.00;4989196;28;20511;-56
2022/05/20 06:53:10;;;;;;;30.92;20.58;;;;;;;19.35;89.02;99765.31;4984977;28;20453;-56
2022/05/20 06:55:35;;;;;;;40.10;22.30;;;;;;;18.91;91.84;99760.03;4988120;28;20030;-55
2022/05/20 06:58:01;;;;;;;32.97;21.52;;;;;;;19.11;91.46;99764.47;4987589;28;20026;-56
2022/05/20 07:00:27;;;;;;;33.35;21.65;;;;;;;19.24;90.92;99768.41;4988853;28;20447;-54
2022/05/20 07:02:52;;;;;;;33.42;21.67;;;;;;;19.53;90.30;99761.06;4988267;28;20038;-56
2022/05/20 07:05:18;;;;;;;29.48;18.35;;;;;;;19.62;88.62;99758.53;4989799;28;20057;-57
2022/05/20 07:07:44;;;;;;;27.90;21.15;;;;;;;20.01;88.86;99760.25;4987119;28;20386;-56
2022/05/20 07:10:10;;;;;;;27.90;18.02;;;;;;;20.75;83.00;99752.41;4987367;28;20026;-56
2022/05/20 07:12:37;;;;;;;26.63;17.73;;;;;;;20.76;82.53;99753.19;4987735;28;20081;-55
2022/05/20 07:15:03;;;;;;;27.70;17.50;;;;;;;20.93;81.41;99747.19;5002791;28;20065;-55
2022/05/20 07:17:28;;;;;;;29.65;19.92;;;;;;;21.16;80.71;99757.13;4988254;28;20034;-56
2022/05/20 07:19:54;;;;;;;27.75;19.55;;;;;;;21.46;79.53;99755.00;4988438;28;20076;-56
2022/05/20 07:22:21;;;;;;;31.35;19.67;;;;;;;21.52;80.84;99761.97;4986467;28;20045;-58
2022/05/20 07:24:46;;;;;;;27.25;19.27;;;;;;;22.33;76.56;99753.22;4985287;28;20054;-57
2022/05/20 07:27:12;;;;;;;27.88;18.23;;;;;;;22.57;76.58;99745.56;4984100;28;20022;-56
2022/05/20 07:29:38;;;;;;;35.83;19.38;;;;;;;22.28;77.64;99743.22;4987897;28;20030;-57
2022/05/20 07:32:04;;;;;;;27.38;18.98;;;;;;;21.84;77.87;99743.88;4987823;28;20033;-57
2022/05/20 07:34:30;;;;;;;31.85;21.15;;;;;;;20.94;80.44;99729.75;4987627;28;20034;-56
2022/05/20 07:36:55;;;;;;;28.80;18.35;;;;;;;22.34;77.59;99732.97;4987432;28;20030;-58
2022/05/20 07:39:21;;;;;;;31.45;20.42;;;;;;;22.74;75.57;99727.66;4987810;28;20488;-57
2022/05/20 07:41:47;;;;;;;23.95;17.45;;;;;;;23.35;71.78;99725.31;4987579;28;20468;-57
2022/05/20 07:44:13;;;;;;;29.02;19.30;;;;;;;22.81;73.73;99722.56;5003039;28;20029;-57
2022/05/20 07:46:38;;;;;;;26.77;19.33;;;;;;;21.86;77.81;99725.28;4990200;28;20026;-57
2022/05/20 07:49:04;;;;;;;30.90;18.25;;;;;;;22.73;75.98;99721.38;4973786;28;20579;-57
2022/05/20 07:51:30;;;;;;;26.55;20.00;;;;;;;22.43;77.87;99716.69;5006665;28;20065;-57
2022/05/20 07:53:58;;;;;;;25.80;17.90;;;;;;;21.24;81.47;99715.59;4985887;28;20030;-56
2022/05/20 07:56:35;;;;;;;30.83;21.20;;;;;;;21.05;81.18;99704.75;5005935;28;20026;-57
2022/05/20 07:59:06;;;;;;;26.85;19.83;;;;;;;21.57;81.23;99701.88;4967621;28;20451;-57
2022/05/20 08:01:35;;;;;;;33.20;20.45;;;;;;;22.47;76.23;99699.38;5006572;28;20172;-57
2022/05/20 08:06:49;;;;;;;29.05;18.00;;;;;;;25.07;68.54;99706.59;5004500;28;20421;-57
2022/05/20 08:09:15;;;;;;;23.20;16.95;;;;;;;26.70;61.29;99698.81;4989023;28;20030;-56
2022/05/20 08:11:40;;;;;;;25.17;15.77;;;;;;;26.83;60.59;99705.16;5006090;28;20018;-57
2022/05/20 08:14:06;;;;;;;19.50;14.93;;;;;;;25.46;66.24;99712.94;5006787;28;20197;-57
2022/05/20 08:16:32;;;;;;;23.25;15.68;;;;;;;25.16;65.52;99703.81;5004600;28;20017;-57
2022/05/20 08:18:57;;;;;;;24.58;15.68;;;;;;;23.95;69.80;99711.00;5007130;28;20048;-56
2022/05/20 08:21:23;;;;;;;23.88;16.88;;;;;;;23.74;71.57;99699.88;5004903;28;20026;-57
2022/05/20 08:23:51;;;;;;;25.77;16.48;;;;;;;23.71;71.58;99700.47;4988134;28;20030;-56
2022/05/20 08:26:18;;;;;;;29.48;18.08;;;;;;;23.56;71.72;99687.22;5006339;28;20052;-57
2022/05/20 08:28:45;;;;;;;24.85;17.95;;;;;;;23.86;69.79;99686.38;5005932;28;20026;-57
2022/05/20 08:31:11;;;;;;;31.10;17.13;;;;;;;24.51;68.77;99675.59;5001736;28;20061;-57
2022/05/20 08:33:37;;;;;;;22.52;15.90;;;;;;;24.69;69.67;99673.66;5005451;28;20495;-57
2022/05/20 08:36:03;;;;;;;20.70;15.38;;;;;;;24.93;67.53;99673.09;5005439;28;20036;-57
2022/05/20 08:38:30;;;;;;;19.42;14.73;;;;;;;25.68;64.83;99661.63;4988757;28;20022;-57
2022/05/20 08:40:57;;;;;;;20.85;15.43;;;;;;;25.90;62.93;99657.78;5001039;28;20030;-57
2022/05/20 08:43:25;;;;;;;19.33;13.98;;;;;;;26.18;62.80;99663.53;4986408;28;20057;-57
2022/05/20 08:45:51;;;;;;;14.23;8.90;;;;;;;25.54;62.95;99654.44;4987523;28;20366;-57
2022/05/20 08:48:18;;;;;;;12.68;8.45;;;;;;;25.47;63.81;99647.88;4964957;28;20079;-57
2022/05/20 08:50:52;;;;;;;15.18;8.43;;;;;;;24.66;63.96;99647.69;5003534;28;20076;-57
2022/05/20 08:53:32;;;;;;;14.32;8.40;;;;;;;23.87;68.21;99649.66;4991527;28;20054;-56
2022/05/20 08:56:09;;;;;;;10.77;8.35;;;;;;;23.99;66.92;99649.03;4958314;28;20030;-57
2022/05/20 08:58:36;;;;;;;10.32;8.35;;;;;;;24.38;67.38;99643.69;5003753;28;20124;-57
2022/05/20 09:01:03;;;;;;;12.60;8.85;;;;;;;23.17;71.47;99636.94;5003919;28;20029;-57
2022/05/20 09:03:28;;;;;;;13.90;8.63;;;;;;;24.36;70.02;99632.25;5004386;28;20080;-57
2022/05/20 09:06:10;;;;;;;18.35;11.85;;;;;;;24.39;70.71;99632.41;4998053;28;20022;-56
2022/05/20 09:08:36;;;;;;;17.20;12.68;;;;;;;25.65;66.53;99621.91;4984417;28;20452;-56
2022/05/20 09:11:03;;;;;;;17.83;13.05;;;;;;;25.50;66.49;99631.53;4963143;28;20523;-56
2022/05/20 09:16:26;;;;;;;14.75;10.63;;;;;;;25.95;64.86;99625.44;5006872;28;20087;-56
2022/05/20 09:19:09;;;;;;;14.90;10.32;;;;;;;25.33;65.63;99628.91;5001483;28;20030;-57
2022/05/20 09:21:40;;;;;;;13.55;10.05;;;;;;;24.55;67.25;99621.75;5004467;28;20103;-57
2022/05/20 09:24:08;;;;;;;13.23;9.50;;;;;;;25.14;67.36;99610.09;4979355;28;20056;-57
2022/05/20 09:26:40;;;;;;;14.25;9.55;;;;;;;25.24;67.39;99606.22;4985469;28;20029;-57
2022/05/20 09:29:07;;;;;;;15.18;9.68;;;;;;;25.06;66.79;99600.78;5000177;28;20053;-57
2022/05/20 09:31:47;;;;;;;16.83;11.00;;;;;;;24.92;66.74;99586.50;5002427;28;20540;-57
2022/05/20 09:34:25;;;;;;;23.27;10.45;;;;;;;25.92;65.39;99593.16;5003607;28;20030;-57
2022/05/20 09:37:00;;;;;;;19.35;11.18;;;;;;;25.01;67.60;99603.72;5000869;28;20037;-57
2022/05/20 09:39:36;;;;;;;16.52;10.70;;;;;;;24.63;66.54;99584.50;4999656;28;20038;-57
2022/05/20 09:42:16;;;;;;;14.45;11.50;;;;;;;23.92;70.13;99595.88;4984299;28;20040;-57
2022/05/20 09:44:44;;;;;;;18.63;11.55;;;;;;;24.35;69.73;99590.34;4987777;28;20084;-56
2022/05/20 09:47:46;;;;;;;12.20;9.30;;;;;;;24.61;69.88;99586.75;5004636;28;20453;-56
2022/05/20 09:50:26;;;;;;;13.10;9.75;;;;;;;24.22;69.97;99578.47;4982822;28;20330;-57
2022/05/20 09:52:56;;;;;;;17.73;9.40;;;;;;;24.74;69.08;99572.88;4965846;28;20097;-57
2022/05/20 09:55:39;;;;;;;19.52;8.73;;;;;;;26.49;65.10;99568.88;4968949;28;20033;-56
2022/05/20 09:58:28;;;;;;;10.32;7.63;;;;;;;28.56;59.15;99568.84;4988887;28;20123;-57
2022/05/20 10:01:02;;;;;;;12.43;8.57;;;;;;;25.58;65.53;99564.81;5000161;28;20108;-57
2022/05/20 10:03:29;;;;;;;14.27;8.85;;;;;;;26.06;65.60;99568.19;4981859;28;20030;-59
2022/05/20 10:06:00;;;;;;;13.40;9.10;;;;;;;27.37;60.47;99552.88;4983441;28;20037;-58
2022/05/20 10:08:52;;;;;;;12.20;7.80;;;;;;;24.51;69.42;99557.78;4982003;28;20496;-57
2022/05/20 10:11:28;;;;;;;15.77;8.85;;;;;;;25.84;65.49;99547.34;4949694;28;20165;-58
2022/05/20 10:14:13;;;;;;;16.05;8.40;;;;;;;25.99;63.86;99543.19;4987242;28;20060;-56
2022/05/20 10:16:54;;;;;;;13.13;9.15;;;;;;;25.18;65.97;99546.03;5000161;28;20038;-57
2022/05/20 10:19:28;;;;;;;12.07;8.00;;;;;;;26.12;64.85;99531.09;4961161;28;20487;-56
2022/05/20 10:22:07;;;;;;;16.45;7.93;;;;;;;26.92;63.11;99521.59;5003229;28;20042;-56
2022/05/20 10:24:42;;;;;;;13.55;8.32;;;;;;;26.12;63.34;99519.31;4988264;28;20027;-57
2022/05/20 10:27:10;;;;;;;11.23;8.52;;;;;;;25.93;64.31;99506.88;4986923;28;20464;-56
2022/05/20 10:33:08;;;;;;;11.55;8.75;;;;;;;25.01;65.61;99490.47;5003522;28;20136;-56
2022/05/20 10:35:43;;;;;;;11.07;7.97;;;;;;;25.74;64.85;99473.66;5000869;28;20558;-56
2022/05/20 10:38:21;;;;;;;13.13;9.20;;;;;;;24.65;66.61;99462.47;4983947;28;20060;-56
2022/05/20 10:41:04;;;;;;;13.82;8.55;;;;;;;24.75;69.55;99431.94;5000005;28;20026;-56
2022/05/20 10:50:15;;;;;;;11.63;7.95;;;;;;;25.23;68.61;99453.75;5006383;28;20110;-56
2022/05/20 10:52:47;;;;;;;11.50;7.60;;;;;;;25.16;68.32;99466.06;5003463;28;20335;-56
2022/05/20 10:55:35;;;;;;;12.55;8.40;;;;;;;24.72;69.68;99460.03;5007849;28;20484;-55
2022/05/20 10:58:16;;;;;;;12.13;8.00;;;;;;;25.01;69.88;99454.84;4988591;28;20049;-56
2022/05/20 11:00:52;;;;;;;15.23;7.90;;;;;;;25.25;68.42;99471.47;5002801;28;20104;-57
2022/05/20 11:03:23;;;;;;;11.60;7.95;;;;;;;24.44;69.58;99461.59;5007085;28;20037;-56
2022/05/20 11:06:17;;;;;;;15.23;9.10;;;;;;;23.86;71.82;99444.69;5008387;28;20072;-57
2022/05/20 11:09:01;;;;;;;13.02;9.02;;;;;;;22.87;76.78;99409.00;4987378;28;20551;-56
2022/05/20 11:11:59;;;;;;;18.08;8.70;;;;;;;23.96;73.80;99397.00;4976002;28;20044;-57
2022/05/20 11:14:43;;;;;;;16.40;9.48;;;;;;;24.71;72.16;99409.09;4979955;28;20490;-56
2022/05/20 11:17:45;;;;;;;13.30;8.10;;;;;;;24.89;72.41;99403.50;5002953;28;20021;-56
2022/05/20 11:20:14;;;;;;;13.55;8.15;;;;;;;24.79;70.50;99398.38;4991588;28;20227;-56
2022/05/20 11:22:42;;;;;;;11.60;8.60;;;;;;;24.40;72.45;99403.13;5004575;28;20440;-56
2022/05/20 11:25:26;;;;;;;12.48;8.70;;;;;;;24.67;72.59;99419.09;5007676;28;20628;-56
2022/05/20 11:28:26;;;;;;;12.70;8.48;;;;;;;24.09;73.49;99426.13;5005062;28;20050;-56
2022/05/20 11:30:56;;;;;;;13.10;8.60;;;;;;;23.95;74.51;99436.47;4970958;28;20096;-57
2022/05/20 11:34:01;;;;;;;14.02;9.18;;;;;;;23.72;76.09;99439.41;5003893;28;20219;-57
2022/05/20 11:36:54;;;;;;;15.57;8.98;;;;;;;23.51;76.94;99435.72;4950882;28;20051;-57
2022/05/20 11:39:48;;;;;;;15.52;10.02;;;;;;;23.75;76.50;99455.19;5001413;28;20018;-56
2022/05/20 11:42:19;;;;;;;17.77;9.50;;;;;;;23.66;77.48;99446.16;4987856;28;20416;-57
2022/05/20 11:45:11;;;;;;;14.52;10.00;;;;;;;23.74;76.98;99436.34;4989751;28;20477;-57
2022/05/20 11:48:05;;;;;;;19.48;9.57;;;;;;;22.81;79.86;99400.97;4965960;28;20430;-57
2022/05/20 11:50:52;;;;;;;13.80;9.90;;;;;;;22.88;80.82;99334.88;4969297;28;20026;-57
2022/05/20 11:53:30;;;;;;;14.25;10.07;;;;;;;22.95;82.39;99290.69;4987429;28;20539;-55
2022/05/20 11:56:28;;;;;;;15.80;10.60;;;;;;;23.13;80.42;99318.81;4980947;28;20045;-56
2022/05/20 11:59:15;;;;;;;18.38;11.57;;;;;;;23.93;84.63;99312.81;4985323;28;20057;-56
2022/05/20 12:01:41;;;;;;;17.42;10.82;;;;;;;23.99;78.73;99282.22;4988782;28;20471;-56
2022/05/20 12:04:07;;;;;;;14.82;10.43;;;;;;;24.31;77.65;99269.78;4986858;28;20058;-57